CheckWX is a tool to help pilots better visualize weather data.  It is not intended as a substitute for an official pre-flight weather briefing.

19:08:04 UTC

KY8 METAR
Hancock Co-Ron Lewis Field Airport
Lewisport, Kentucky, USA
Current

33 mins ago

KKY8 161835Z AUTO 23004KT 10SM OVC065 12/M00 A3009 RMK A01
Observed
Feb-16 @ 18:35 UTC
Wind
  • 230° at 4 KTS
Visibility
10 SM
Flight Rules
VFR
Cloud Levels
  • Overcast at 6,500' AGL
Temperature
12°C / 54°F
Dewpoint
C / 32°F
Humidity
44%
Altimeter
30.09" Hg
Pressure
1018.92 hPa
Previous

53 mins ago

KKY8 161815Z AUTO VRB03KT 10SM OVC065 12/00 A3009 RMK A01
Observed
Feb-16 @ 18:15 UTC
Wind
  • Variable at 3 KTS
Visibility
10 SM
Flight Rules
VFR
Cloud Levels
  • Overcast at 6,500' AGL
Temperature
12°C / 54°F
Dewpoint
C / 32°F
Humidity
44%
Altimeter
30.09" Hg
Pressure
1018.92 hPa
Previous

1 hour ago

KKY8 161755Z AUTO 00000KT 10SM OVC065 11/M01 A3010 RMK A01
Observed
Feb-16 @ 17:55 UTC
Visibility
10 SM
Flight Rules
VFR
Cloud Levels
  • Overcast at 6,500' AGL
Temperature
11°C / 52°F
Dewpoint
-1°C / 30°F
Humidity
44%
Altimeter
30.1" Hg
Pressure
1019.32 hPa